createdAt,value
2019-05-11T00:01:14.392Z,7.24
2019-05-11T00:03:40.728Z,7.25
2019-05-11T00:06:06.959Z,7.25
2019-05-11T00:08:33.209Z,7.24
2019-05-11T00:10:59.445Z,7.25
2019-05-11T00:13:25.689Z,7.21
2019-05-11T00:15:51.916Z,7.17
2019-05-11T00:18:18.187Z,7.14
2019-05-11T00:20:44.424Z,7.12
2019-05-11T00:23:10.671Z,7.09
2019-05-11T00:25:36.927Z,7.08
2019-05-11T00:28:03.190Z,7.09
2019-05-11T00:30:29.435Z,7.07
2019-05-11T00:32:55.662Z,7.06
2019-05-11T00:35:21.910Z,7.04
2019-05-11T00:37:48.149Z,7.00
2019-05-11T00:40:15.205Z,6.97
2019-05-11T00:42:41.518Z,6.93
2019-05-11T00:45:07.780Z,6.85
2019-05-11T00:47:33.997Z,6.81
2019-05-11T00:50:00.751Z,6.71
2019-05-11T00:52:27.002Z,6.60
2019-05-11T00:54:53.249Z,6.53
2019-05-11T00:57:19.476Z,6.44
2019-05-11T00:59:45.730Z,6.37
2019-05-11T01:02:11.962Z,6.29
2019-05-11T01:04:38.211Z,6.21
2019-05-11T01:07:04.449Z,6.15
2019-05-11T01:09:30.667Z,6.03
2019-05-11T01:11:56.907Z,5.90
2019-05-11T01:14:23.133Z,5.79
2019-05-11T01:16:49.380Z,5.71
2019-05-11T01:19:15.613Z,5.04
2019-05-11T01:21:41.862Z,5.45
2019-05-11T01:24:08.099Z,5.37
2019-05-11T01:26:34.446Z,5.25
2019-05-11T01:29:00.675Z,5.13
2019-05-11T01:31:28.304Z,5.10
2019-05-11T01:33:54.550Z,5.04
2019-05-11T01:36:20.799Z,4.98
2019-05-11T01:38:47.023Z,4.90
2019-05-11T01:41:13.262Z,4.78
2019-05-11T01:43:39.494Z,4.65
2019-05-11T01:46:05.741Z,4.52
2019-05-11T01:48:31.978Z,4.43
2019-05-11T01:50:58.226Z,4.46
2019-05-11T01:53:24.467Z,4.43
2019-05-11T01:55:50.712Z,4.34
2019-05-11T01:58:16.941Z,4.31
2019-05-11T02:00:43.173Z,4.37
2019-05-11T02:03:09.422Z,4.40
2019-05-11T02:05:35.658Z,4.41
2019-05-11T02:08:01.910Z,4.40
2019-05-11T02:10:29.056Z,4.37
2019-05-11T02:12:55.301Z,4.34
2019-05-11T02:15:21.520Z,4.27
2019-05-11T02:17:47.764Z,4.19
2019-05-11T02:20:14.099Z,4.14
2019-05-11T02:22:40.353Z,4.12
2019-05-11T02:25:07.179Z,4.09
2019-05-11T02:27:33.426Z,4.03
2019-05-11T02:29:59.727Z,3.97
2019-05-11T02:32:25.994Z,3.95
2019-05-11T02:34:52.267Z,3.92
2019-05-11T02:37:18.461Z,3.88
2019-05-11T02:39:44.693Z,3.85
2019-05-11T02:42:10.954Z,3.81
2019-05-11T02:44:37.198Z,3.78
2019-05-11T02:47:03.431Z,3.79
2019-05-11T02:49:29.675Z,3.78
2019-05-11T02:51:56.914Z,3.77
2019-05-11T02:54:23.221Z,3.78
2019-05-11T02:56:49.431Z,3.75
2019-05-11T02:59:15.674Z,3.77
2019-05-11T03:01:41.905Z,3.76
2019-05-11T03:04:08.147Z,3.77
2019-05-11T03:06:34.389Z,3.82
2019-05-11T03:09:00.622Z,3.87
2019-05-11T03:11:26.843Z,3.92
2019-05-11T03:13:53.082Z,4.00
2019-05-11T03:16:19.310Z,4.10
2019-05-11T03:18:45.549Z,4.19
2019-05-11T03:21:11.781Z,4.31
2019-05-11T03:23:38.043Z,4.45
2019-05-11T03:26:04.272Z,4.64
2019-05-11T03:28:30.522Z,4.80
2019-05-11T03:30:56.819Z,4.97
2019-05-11T03:33:23.102Z,5.10
2019-05-11T03:35:49.342Z,5.20
2019-05-11T03:38:15.565Z,5.29
2019-05-11T03:40:41.807Z,5.38
2019-05-11T03:43:08.049Z,5.40
2019-05-11T03:45:34.302Z,5.46
2019-05-11T03:48:00.527Z,5.53
2019-05-11T03:50:26.757Z,5.57
2019-05-11T03:52:52.995Z,5.62
2019-05-11T03:55:19.383Z,5.71
2019-05-11T03:57:45.585Z,5.77
2019-05-11T04:00:11.927Z,5.84
2019-05-11T04:02:38.149Z,5.91
2019-05-11T04:05:04.803Z,5.96
2019-05-11T04:07:31.033Z,5.99
2019-05-11T04:09:57.285Z,6.04
2019-05-11T04:12:34.032Z,6.13
2019-05-11T04:14:51.721Z,6.26
2019-05-11T04:17:20.665Z,6.33
2019-05-11T04:19:46.920Z,6.40
2019-05-11T04:22:13.150Z,6.50
2019-05-11T04:24:39.400Z,6.53
2019-05-11T04:27:05.645Z,6.60
2019-05-11T04:29:31.907Z,6.64
2019-05-11T04:31:58.181Z,6.57
2019-05-11T04:34:24.414Z,6.56
2019-05-11T04:36:50.792Z,6.56
2019-05-11T04:39:17.022Z,6.55
2019-05-11T04:41:43.267Z,6.61
2019-05-11T04:44:09.516Z,6.69
2019-05-11T04:46:35.758Z,6.70
2019-05-11T04:49:02.083Z,6.66
2019-05-11T04:51:29.713Z,6.67
2019-05-11T04:53:55.956Z,6.80
2019-05-11T04:56:22.219Z,6.80
2019-05-11T04:58:48.468Z,6.76
2019-05-11T05:01:14.720Z,6.80
2019-05-11T05:03:41.564Z,6.92
2019-05-11T05:06:21.763Z,7.00
2019-05-11T05:08:37.264Z,7.06
2019-05-11T05:11:03.499Z,7.15
2019-05-11T05:13:31.463Z,7.28
2019-05-11T05:15:57.888Z,7.41
2019-05-11T05:18:24.114Z,7.57
2019-05-11T05:20:50.361Z,7.67
2019-05-11T05:23:16.988Z,7.79
2019-05-11T05:25:43.215Z,7.80
2019-05-11T05:28:09.969Z,7.83
2019-05-11T05:30:36.506Z,7.86
2019-05-11T05:33:02.865Z,7.81
2019-05-11T05:35:29.092Z,7.82
2019-05-11T05:37:55.337Z,7.87
2019-05-11T05:40:21.585Z,8.00
2019-05-11T05:42:47.834Z,7.98
2019-05-11T05:45:14.794Z,8.02
2019-05-11T05:47:41.040Z,8.07
2019-05-11T05:50:07.584Z,7.93
2019-05-11T05:52:33.850Z,7.97
2019-05-11T05:55:00.091Z,8.18
2019-05-11T05:57:26.346Z,8.26
2019-05-11T05:59:52.631Z,8.36
2019-05-11T06:02:18.852Z,8.44
2019-05-11T06:04:45.098Z,8.37
2019-05-11T06:07:11.331Z,8.39
2019-05-11T06:09:37.584Z,8.41
2019-05-11T06:12:03.805Z,8.53
2019-05-11T06:14:30.047Z,8.72
2019-05-11T06:16:56.282Z,8.85
2019-05-11T06:19:22.522Z,8.83
2019-05-11T06:21:48.753Z,8.78
2019-05-11T06:24:15.010Z,8.90
2019-05-11T06:26:41.248Z,9.00
2019-05-11T06:29:07.490Z,9.09
2019-05-11T06:31:33.720Z,9.09
2019-05-11T06:34:00.066Z,9.21
2019-05-11T06:36:26.297Z,9.18
2019-05-11T06:38:52.544Z,9.36
2019-05-11T06:41:18.780Z,9.38
2019-05-11T06:44:00.810Z,9.43
2019-05-11T06:46:13.190Z,9.59
2019-05-11T06:48:39.435Z,9.58
2019-05-11T06:51:05.677Z,9.54
2019-05-11T06:53:31.903Z,9.59
2019-05-11T06:55:58.139Z,9.86
2019-05-11T06:58:24.364Z,10.10
2019-05-11T07:00:50.614Z,10.34
2019-05-11T07:03:16.843Z,10.48
2019-05-11T07:05:43.314Z,10.77
2019-05-11T07:08:09.548Z,10.89
2019-05-11T07:10:35.815Z,10.89
2019-05-11T07:13:02.039Z,10.96
2019-05-11T07:15:28.291Z,11.25
2019-05-11T07:17:54.534Z,11.58
2019-05-11T07:20:20.797Z,11.89
2019-05-11T07:22:47.128Z,12.05
2019-05-11T07:25:13.397Z,12.21
2019-05-11T07:27:39.628Z,11.97
2019-05-11T07:30:06.282Z,11.86
2019-05-11T07:32:32.499Z,11.85
2019-05-11T07:34:59.040Z,12.14
2019-05-11T07:37:27.829Z,12.20
2019-05-11T07:39:53.427Z,12.43
2019-05-11T07:42:19.678Z,12.68
2019-05-11T07:44:48.048Z,13.29
2019-05-11T07:47:14.110Z,13.70
2019-05-11T07:49:40.353Z,13.97
2019-05-11T07:52:07.757Z,14.30
2019-05-11T07:54:34.250Z,14.93
2019-05-11T07:57:00.501Z,15.53
2019-05-11T07:59:28.888Z,15.76
2019-05-11T08:01:54.881Z,15.80
2019-05-11T08:04:21.122Z,16.07
2019-05-11T08:06:48.008Z,15.55
2019-05-11T08:09:14.404Z,15.57
2019-05-11T08:11:40.654Z,16.24
2019-05-11T08:14:07.735Z,17.07
2019-05-11T08:16:34.816Z,17.64
2019-05-11T08:19:01.049Z,17.64
2019-05-11T08:21:28.377Z,17.51
2019-05-11T08:23:55.583Z,17.55
2019-05-11T08:26:21.887Z,18.34
2019-05-11T08:28:48.722Z,18.53
2019-05-11T08:31:15.083Z,18.92
2019-05-11T08:33:41.324Z,18.72
2019-05-11T08:36:08.342Z,18.98
2019-05-11T08:38:34.714Z,18.96
2019-05-11T08:41:01.049Z,18.67
2019-05-11T08:43:28.468Z,18.71
2019-05-11T08:45:54.952Z,18.68
2019-05-11T08:48:21.206Z,18.96
2019-05-11T08:50:48.835Z,18.85
2019-05-11T08:53:17.701Z,19.17
2019-05-11T08:55:43.563Z,19.65
2019-05-11T08:58:09.825Z,19.45
2019-05-11T09:00:36.052Z,19.05
2019-05-11T09:03:02.306Z,19.51
2019-05-11T09:05:28.541Z,19.36
2019-05-11T09:07:54.789Z,19.45
2019-05-11T09:10:21.022Z,19.96
2019-05-11T09:12:48.799Z,19.96
2019-05-11T09:15:31.614Z,20.24
2019-05-11T09:17:43.666Z,20.73
2019-05-11T09:20:10.326Z,21.03
2019-05-11T09:22:38.078Z,20.93
2019-05-11T09:25:08.833Z,21.01
2019-05-11T09:27:34.969Z,20.69
2019-05-11T09:30:01.260Z,20.42
2019-05-11T09:32:28.529Z,20.74
2019-05-11T09:34:54.996Z,20.76
2019-05-11T09:37:21.227Z,20.83
2019-05-11T09:39:47.928Z,20.97
2019-05-11T09:42:14.302Z,20.90
2019-05-11T09:44:40.584Z,20.61
2019-05-11T09:47:08.436Z,20.74
2019-05-11T09:49:44.842Z,21.05
2019-05-11T09:52:03.021Z,20.32
2019-05-11T09:54:29.263Z,20.41
2019-05-11T09:56:57.650Z,20.50
2019-05-11T09:59:23.634Z,20.46
2019-05-11T10:01:49.884Z,20.50
2019-05-11T10:04:18.086Z,20.39
2019-05-11T10:06:44.296Z,20.57
2019-05-11T10:09:10.527Z,20.48
2019-05-11T10:11:36.782Z,20.56
2019-05-11T10:14:03.012Z,20.79
2019-05-11T10:16:29.273Z,20.76
2019-05-11T10:18:55.511Z,20.87
2019-05-11T10:21:21.756Z,20.37
2019-05-11T10:23:48.948Z,19.95
2019-05-11T10:26:15.483Z,20.01
2019-05-11T10:28:41.712Z,20.41
2019-05-11T10:31:08.703Z,20.73
2019-05-11T10:33:35.000Z,20.72
2019-05-11T10:36:03.277Z,20.72
2019-05-11T10:38:29.394Z,20.94
2019-05-11T10:40:57.994Z,21.05
2019-05-11T10:43:23.783Z,21.11
2019-05-11T10:45:51.128Z,21.05
2019-05-11T10:48:17.829Z,21.22
2019-05-11T10:50:44.220Z,21.11
2019-05-11T10:53:10.470Z,20.86
2019-05-11T10:55:38.695Z,20.92
2019-05-11T10:58:04.882Z,21.12
2019-05-11T11:00:31.612Z,21.01
2019-05-11T11:02:58.370Z,21.36
2019-05-11T11:05:24.792Z,21.46
2019-05-11T11:07:51.039Z,21.36
2019-05-11T11:10:18.283Z,21.40
2019-05-11T11:12:44.719Z,21.31
2019-05-11T11:15:11.962Z,21.09
2019-05-11T11:17:38.547Z,20.02
2019-05-11T11:20:08.379Z,19.87
2019-05-11T11:22:40.366Z,20.43
2019-05-11T11:25:03.406Z,20.78
2019-05-11T11:27:29.667Z,21.05
2019-05-11T11:29:58.114Z,21.36
2019-05-11T11:32:24.077Z,21.71
2019-05-11T11:34:50.327Z,21.61
2019-05-11T11:37:17.562Z,21.53
2019-05-11T11:39:43.905Z,21.36
2019-05-11T11:42:10.160Z,21.20
2019-05-11T11:44:37.966Z,21.41
2019-05-11T11:47:04.351Z,21.69
2019-05-11T11:49:30.619Z,21.47
2019-05-11T11:51:57.719Z,21.40
2019-05-11T11:54:24.313Z,20.96
2019-05-11T11:56:50.557Z,20.72
2019-05-11T11:59:17.819Z,20.84
2019-05-11T12:01:44.345Z,20.92
2019-05-11T12:04:10.596Z,21.09
2019-05-11T12:06:38.570Z,21.15
2019-05-11T12:09:08.604Z,20.71
2019-05-11T12:11:34.504Z,20.51
2019-05-11T12:14:00.760Z,20.52
2019-05-11T12:16:28.149Z,20.36
2019-05-11T12:18:54.625Z,20.30
2019-05-11T12:21:21.217Z,20.06
2019-05-11T12:23:48.513Z,19.81
2019-05-11T12:26:17.530Z,19.79
2019-05-11T12:28:43.320Z,19.54
2019-05-11T12:31:09.584Z,19.78
2019-05-11T12:33:35.813Z,19.60
2019-05-11T12:36:02.070Z,19.75
2019-05-11T12:38:28.296Z,19.55
2019-05-11T12:40:54.541Z,19.68
2019-05-11T12:43:22.632Z,19.71
2019-05-11T12:45:48.931Z,19.82
2019-05-11T12:48:15.165Z,19.87
2019-05-11T12:50:41.411Z,19.85
2019-05-11T12:53:08.152Z,19.87
2019-05-11T12:55:34.425Z,19.96
2019-05-11T12:58:00.647Z,20.18
2019-05-11T13:00:30.942Z,20.34
2019-05-11T13:02:55.030Z,20.11
2019-05-11T13:05:21.280Z,20.05
2019-05-11T13:07:48.101Z,20.17
2019-05-11T13:10:15.070Z,20.04
2019-05-11T13:12:41.306Z,19.77
2019-05-11T13:15:08.407Z,19.99
2019-05-11T13:17:37.793Z,19.99
2019-05-11T13:20:04.952Z,19.83
2019-05-11T13:22:31.210Z,19.33
2019-05-11T13:24:58.824Z,19.16
2019-05-11T13:27:25.336Z,19.24
2019-05-11T13:29:51.560Z,19.39
2019-05-11T13:32:18.537Z,19.51
2019-05-11T13:34:45.037Z,19.57
2019-05-11T13:37:11.587Z,18.62
2019-05-11T13:39:37.972Z,18.95
2019-05-11T13:42:04.268Z,19.09
2019-05-11T13:44:30.493Z,18.87
2019-05-11T13:46:58.633Z,18.85
2019-05-11T13:49:25.484Z,18.83
2019-05-11T13:51:51.850Z,18.94
2019-05-11T13:54:18.573Z,19.09
2019-05-11T13:56:44.947Z,19.20
2019-05-11T13:59:11.174Z,18.89
2019-05-11T14:01:38.121Z,18.58
2019-05-11T14:04:04.543Z,18.34
2019-05-11T14:06:30.778Z,18.48
2019-05-11T14:08:58.671Z,17.96
2019-05-11T14:11:25.162Z,17.59
2019-05-11T14:13:51.407Z,17.71
2019-05-11T14:16:18.594Z,17.63
2019-05-11T14:18:45.192Z,17.67
2019-05-11T14:21:11.417Z,17.41
2019-05-11T14:23:38.803Z,17.48
2019-05-11T14:26:05.329Z,17.35
2019-05-11T14:28:31.583Z,16.86
2019-05-11T14:30:58.038Z,16.88
2019-05-11T14:33:24.399Z,16.90
2019-05-11T14:35:50.650Z,16.80
2019-05-11T14:38:18.744Z,16.64
2019-05-11T14:40:45.356Z,16.60
2019-05-11T14:43:11.615Z,16.08
2019-05-11T14:45:38.226Z,15.79
2019-05-11T14:48:04.619Z,15.69
2019-05-11T14:50:30.854Z,15.49
2019-05-11T14:52:58.029Z,15.45
2019-05-11T14:55:24.565Z,15.48
2019-05-11T14:57:50.816Z,15.42
2019-05-11T15:00:18.521Z,15.32
2019-05-11T15:02:45.030Z,15.36
2019-05-11T15:05:11.590Z,15.42
2019-05-11T15:07:38.523Z,15.46
2019-05-11T15:10:08.027Z,15.38
2019-05-11T15:12:34.442Z,15.07
2019-05-11T15:15:00.698Z,14.92
2019-05-11T15:17:28.177Z,14.74
2019-05-11T15:19:54.579Z,14.41
2019-05-11T15:22:21.621Z,14.35
2019-05-11T15:24:48.473Z,14.45
2019-05-11T15:27:14.839Z,14.57
2019-05-11T15:29:41.673Z,14.53
2019-05-11T15:32:08.453Z,14.61
2019-05-11T15:34:34.855Z,14.19
2019-05-11T15:37:01.090Z,14.39
2019-05-11T15:39:28.697Z,14.17
2019-05-11T15:42:07.320Z,12.68
2019-05-11T15:44:23.382Z,13.50
2019-05-11T15:46:49.580Z,13.29
2019-05-11T15:49:17.995Z,13.17
2019-05-11T15:51:43.984Z,12.95
2019-05-11T15:54:10.212Z,13.08
2019-05-11T15:56:38.519Z,13.19
2019-05-11T15:59:04.603Z,13.04
2019-05-11T16:01:30.855Z,12.79
2019-05-11T16:03:58.302Z,12.33
2019-05-11T16:06:24.646Z,12.01
2019-05-11T16:08:50.882Z,12.06
2019-05-11T16:11:18.183Z,11.97
2019-05-11T16:13:44.719Z,11.91
2019-05-11T16:16:10.953Z,11.93
2019-05-11T16:18:37.180Z,11.74
2019-05-11T16:21:03.441Z,11.38
2019-05-11T16:23:29.676Z,11.19
2019-05-11T16:25:58.078Z,11.12
2019-05-11T16:28:24.151Z,11.37
2019-05-11T16:30:50.380Z,11.47
2019-05-11T16:33:18.072Z,11.32
2019-05-11T16:35:44.593Z,11.20
2019-05-11T16:38:10.983Z,11.17
2019-05-11T16:40:38.690Z,10.98
2019-05-11T16:43:05.063Z,10.96
2019-05-11T16:45:31.307Z,10.84
2019-05-11T16:47:58.908Z,10.79
2019-05-11T16:50:25.308Z,10.72
2019-05-11T16:52:51.563Z,10.63
2019-05-11T16:55:18.501Z,10.57
2019-05-11T16:57:48.010Z,10.63
2019-05-11T17:00:13.994Z,10.55
2019-05-11T17:02:40.243Z,10.59
2019-05-11T17:05:07.678Z,10.61
2019-05-11T17:07:34.048Z,10.65
2019-05-11T17:10:00.276Z,10.67
2019-05-11T17:12:28.543Z,10.72
2019-05-11T17:14:58.405Z,10.74
2019-05-11T17:17:24.974Z,10.67
2019-05-11T17:19:51.215Z,10.60
2019-05-11T17:22:19.009Z,10.55
2019-05-11T17:24:45.415Z,10.49
2019-05-11T17:27:11.690Z,10.54
2019-05-11T17:29:38.199Z,10.56
2019-05-11T17:32:04.451Z,10.63
2019-05-11T17:34:30.706Z,10.64
2019-05-11T17:36:57.898Z,10.65
2019-05-11T17:39:25.093Z,10.66
2019-05-11T17:41:51.319Z,10.69
2019-05-11T17:44:18.487Z,10.70
2019-05-11T17:46:45.017Z,10.67
2019-05-11T17:49:11.242Z,10.64
2019-05-11T17:51:37.945Z,10.64
2019-05-11T17:54:04.619Z,10.55
2019-05-11T17:56:30.853Z,10.46
2019-05-11T17:58:58.463Z,10.32
2019-05-11T18:01:24.826Z,10.30
2019-05-11T18:03:51.059Z,10.26
2019-05-11T18:06:18.439Z,10.12
2019-05-11T18:08:44.849Z,10.00
2019-05-11T18:11:11.154Z,9.94
2019-05-11T18:13:39.020Z,9.80
2019-05-11T18:16:05.482Z,9.72
2019-05-11T18:18:31.727Z,9.66
2019-05-11T18:20:58.124Z,9.64
2019-05-11T18:23:24.417Z,9.61
2019-05-11T18:25:50.666Z,9.53
2019-05-11T18:28:18.124Z,9.52
2019-05-11T18:30:44.668Z,9.48
2019-05-11T18:33:10.937Z,9.39
2019-05-11T18:35:37.197Z,9.36
2019-05-11T18:38:03.443Z,9.31
2019-05-11T18:40:29.699Z,9.20
2019-05-11T18:42:57.863Z,9.11
2019-05-11T18:45:24.108Z,9.03
2019-05-11T18:47:50.405Z,9.03
2019-05-11T18:50:29.425Z,9.03
2019-05-11T18:52:44.880Z,8.99
2019-05-11T18:55:11.110Z,8.94
2019-05-11T18:57:38.365Z,8.94
2019-05-11T19:00:08.127Z,8.91
2019-05-11T19:02:34.570Z,8.92
2019-05-11T19:05:00.808Z,8.94
2019-05-11T19:07:28.276Z,8.95
2019-05-11T19:09:54.676Z,8.95
2019-05-11T19:12:20.945Z,8.91
2019-05-11T19:14:47.957Z,8.92
2019-05-11T19:17:14.444Z,8.92
2019-05-11T19:19:40.671Z,8.92
2019-05-11T19:22:09.002Z,8.90
2019-05-11T19:24:35.057Z,8.86
2019-05-11T19:27:01.317Z,8.77
2019-05-11T19:29:28.303Z,8.72
2019-05-11T19:31:54.759Z,8.67
2019-05-11T19:34:20.999Z,8.62
2019-05-11T19:36:48.516Z,8.63
2019-05-11T19:39:14.975Z,8.59
2019-05-11T19:41:41.203Z,8.57
2019-05-11T19:44:08.554Z,8.55
2019-05-11T19:46:35.041Z,8.53
2019-05-11T19:49:01.292Z,8.53
2019-05-11T19:51:29.080Z,8.54
2019-05-11T19:53:57.494Z,8.51
2019-05-11T19:56:23.611Z,8.50
2019-05-11T19:58:49.851Z,8.47
2019-05-11T20:01:18.576Z,8.46
2019-05-11T20:03:44.224Z,8.45
2019-05-11T20:06:10.463Z,8.46
2019-05-11T20:08:36.718Z,8.46
2019-05-11T20:11:02.947Z,8.45
2019-05-11T20:13:29.193Z,8.46
2019-05-11T20:15:57.639Z,8.45
2019-05-11T20:18:23.577Z,8.46
2019-05-11T20:20:49.830Z,8.46
2019-05-11T20:23:16.060Z,8.46
2019-05-11T20:25:42.316Z,8.45
2019-05-11T20:28:08.560Z,8.39
2019-05-11T20:30:34.816Z,8.38
2019-05-11T20:33:01.073Z,8.39
2019-05-11T20:35:27.921Z,8.38
2019-05-11T20:37:54.413Z,8.36
2019-05-11T20:40:20.668Z,8.35
2019-05-11T20:42:48.518Z,8.34
2019-05-11T20:45:15.047Z,8.32
2019-05-11T20:47:41.316Z,8.29
2019-05-11T20:50:08.031Z,8.26
2019-05-11T20:52:34.374Z,8.26
2019-05-11T20:55:00.627Z,8.27
2019-05-11T20:57:28.478Z,8.25
2019-05-11T20:59:54.923Z,8.27
2019-05-11T21:02:21.152Z,8.24
2019-05-11T21:04:49.142Z,8.24
2019-05-11T21:07:15.538Z,8.21
2019-05-11T21:09:41.781Z,8.21
2019-05-11T21:12:08.255Z,8.20
2019-05-11T21:14:34.656Z,8.17
2019-05-11T21:17:00.902Z,8.15
2019-05-11T21:19:28.354Z,8.11
2019-05-11T21:21:54.881Z,8.16
2019-05-11T21:24:21.123Z,8.18
2019-05-11T21:26:47.970Z,8.18
2019-05-11T21:29:14.424Z,8.20
2019-05-11T21:31:40.976Z,8.18
2019-05-11T21:34:08.252Z,8.18
2019-05-11T21:36:34.633Z,8.20
2019-05-11T21:39:00.863Z,8.17
2019-05-11T21:41:30.503Z,8.17
2019-05-11T21:43:55.251Z,8.21
2019-05-11T21:46:21.510Z,8.24
2019-05-11T21:48:47.916Z,8.28
2019-05-11T21:51:14.155Z,8.30
2019-05-11T21:53:40.405Z,8.30
2019-05-11T21:56:08.142Z,8.29
2019-05-11T21:58:34.595Z,8.27
2019-05-11T22:01:00.831Z,8.28
2019-05-11T22:03:28.086Z,8.31
2019-05-11T22:05:54.396Z,8.33
2019-05-11T22:08:20.638Z,8.33
2019-05-11T22:10:46.873Z,8.35
2019-05-11T22:13:13.120Z,8.34
2019-05-11T22:15:39.398Z,8.33
2019-05-11T22:18:07.802Z,8.35
2019-05-11T22:20:33.762Z,8.38
2019-05-11T22:23:00.012Z,8.38
2019-05-11T22:25:28.557Z,8.36
2019-05-11T22:27:54.380Z,8.34
2019-05-11T22:30:20.622Z,8.28
2019-05-11T22:32:47.775Z,8.27
2019-05-11T22:35:14.315Z,8.26
2019-05-11T22:37:40.582Z,8.27
2019-05-11T22:40:08.305Z,8.28
2019-05-11T22:42:34.923Z,8.27
2019-05-11T22:45:01.263Z,8.25
2019-05-11T22:47:28.385Z,8.23
2019-05-11T22:49:54.837Z,8.22
2019-05-11T22:52:33.064Z,8.20
2019-05-11T22:54:49.207Z,8.21
2019-05-11T22:57:15.447Z,8.22
2019-05-11T22:59:41.704Z,8.18
2019-05-11T23:02:10.725Z,8.19
2019-05-11T23:04:38.065Z,8.17
2019-05-11T23:07:04.219Z,8.18
2019-05-11T23:09:30.474Z,8.20
2019-05-11T23:12:00.810Z,8.22
2019-05-11T23:14:24.869Z,8.23
2019-05-11T23:16:51.108Z,8.22
2019-05-11T23:19:18.271Z,8.21
2019-05-11T23:21:44.717Z,8.22
2019-05-11T23:24:10.952Z,8.22
2019-05-11T23:26:38.607Z,8.23
2019-05-11T23:29:05.062Z,8.21
2019-05-11T23:31:33.116Z,8.21
2019-05-11T23:33:59.357Z,8.20
2019-05-11T23:36:28.008Z,8.22
2019-05-11T23:38:53.753Z,8.21
2019-05-11T23:41:24.672Z,8.23
2019-05-11T23:43:48.155Z,8.26
2019-05-11T23:46:14.401Z,8.27
2019-05-11T23:48:40.643Z,8.27
2019-05-11T23:51:08.759Z,8.29
2019-05-11T23:53:35.051Z,8.27
2019-05-11T23:56:01.424Z,8.27
2019-05-11T23:58:28.326Z,8.26
